Aérodrome :
LOGIN :

S'inscrire | Disclaimer

   EN    FR    IT 

 










Légende :    VFR   VFR Marginal   IFR   IFR Intensif   IFR Très Intensif
Visi : 
Plafond : 
>= 8 km
>= 3000ft
5 à 8 km
1000 à 3000 ft
1500m à 5 km
500 à 1000 ft
800 à 1500m
200 à 500 ft
< 800m
< 200 ft
Symboles :   Orages  Brouillard  Fortes neiges  Fortes précipitations  Vent > 20 kt
SIGMETs :   Divers  Orages  Givrage  Turbulence  Onde Orograph.  Cendres Volcan.






- Altitude de l'aérodrome : 7 ft
- Code IATA : XHE


LFTH - Hyeres

DERNIER METAR :
  • 032000Z AUTO 23003KT 9999 FEW023 SCT100 OVC140 21/16 Q1007 BECMG SHRA

METARs EXPIRÉS :
  • 031930Z AUTO 22003KT 160V250 CAVOK 21/16 Q1006 BECMG SHRA
  • 031900Z AUTO 22005KT 9999 FEW011 SCT072 BKN110 20/17 Q1006 BECMG SHRA
  • 031830Z AUTO 23005KT 180V250 9999 FEW012/// SCT074/// OVC110/// ///TCU 21/19 Q1006 BECMG SHRA BKN015
  • 031800Z AUTO 22007KT 9999 BKN012/// BKN023/// BKN076/// ///CB 21/19 Q1007 BECMG SHRA BKN015
  • 031730Z AUTO 22006KT 180V250 9999 BKN013 BKN078 BKN094 21/18 Q1006 BECMG SHRA BKN015

TAF TAF LFTH
Valide du 03 à 15h jusqu'au 04 à 15h UTC


031400Z 0315/0415 23012KT 9999 BKN015
BECMG 0318/0321 VRB03KT SHRA
BECMG 0400/0402 7000 RA SCT015 OVC040
TEMPO 0405/0410 4000 +RA BKN010 OVC040
BECMG 0406/0409 12010KT
BECMG 0411/0414 27015G25KT FEW015



MET'MAP, la Météo Aéronautique d'un coup d'oeil ! - Copyright ORBIFLY Décembre 2007 - Disclaimer

ORBIFLY MET'MAP TEAM :

Programmation & Développement : Alexandra Zaïnal
Sur une idée originale de : Baudouin d'Aumeries
Assistance à la programmation : Marc-Olivier Méhu
Soutien technique & logistique : Manuel Goepfert

Contact : metmap@orbifly.com




SOURCES & CREDITS :

   NOAA